Time;durP1;ratioP1;P1;durP2;ratioP2;P2;SDS_P1;SDS_P2;PMS_P1;PMS_P2;Temp;Humidity;BMP_temperature;BMP_pressure;BME280_temperature;BME280_humidity;BME280_pressure;Samples;Min_cycle;Max_cycle;Signal;HPM_P1;HPM_P2
2023/06/04 00:02:26;;;;;;;6.00;2.97;;;9.10;1.00;;;;;;5118933;28;20213;-80
2023/06/04 00:04:53;;;;;;;5.20;3.10;;;9.50;1.00;;;;;;5118932;28;20197;-79
2023/06/04 00:07:20;;;;;;;5.23;3.27;;;9.30;1.00;;;;;;5119042;28;20204;-80
2023/06/04 00:09:47;;;;;;;4.47;3.10;;;9.20;1.00;;;;;;5119057;28;20211;-78
2023/06/04 00:12:15;;;;;;;4.33;2.90;;;8.90;1.00;;;;;;5118978;28;20219;-79
2023/06/04 00:14:42;;;;;;;5.00;2.80;;;8.80;69.50;;;;;;5119166;28;20205;-80
2023/06/04 00:17:10;;;;;;;3.87;3.03;;;8.90;99.90;;;;;;5118739;28;20644;-77
2023/06/04 00:19:39;;;;;;;4.57;3.47;;;9.10;68.90;;;;;;5119073;28;20575;-79
2023/06/04 00:22:06;;;;;;;3.70;2.80;;;9.00;1.00;;;;;;5118559;28;20231;-79
2023/06/04 00:24:33;;;;;;;3.33;2.70;;;8.80;1.00;;;;;;5118803;28;20213;-77
2023/06/04 00:27:00;;;;;;;4.30;2.90;;;9.10;99.90;;;;;;5119238;28;20205;-79
2023/06/04 00:29:28;;;;;;;4.93;3.10;;;9.40;95.20;;;;;;5118679;28;20408;-78
2023/06/04 00:31:55;;;;;;;6.27;3.00;;;9.40;8.20;;;;;;5118831;28;20894;-78
2023/06/04 00:34:22;;;;;;;5.20;2.63;;;9.30;32.00;;;;;;5118944;28;20221;-77
2023/06/04 00:36:49;;;;;;;7.13;3.13;;;9.30;1.00;;;;;;5119095;28;20205;-78
2023/06/04 00:39:16;;;;;;;3.73;2.97;;;9.20;13.30;;;;;;5119080;28;20227;-76
2023/06/04 00:41:42;;;;;;;3.33;2.47;;;9.30;1.00;;;;;;5119539;28;20220;-78
2023/06/04 00:44:11;;;;;;;3.93;2.53;;;9.20;1.00;;;;;;5118598;28;20228;-78
2023/06/04 00:46:39;;;;;;;5.63;3.07;;;8.80;1.00;;;;;;5118034;28;20197;-77
2023/06/04 00:49:07;;;;;;;4.17;2.90;;;8.50;99.90;;;;;;5119510;28;20683;-78
2023/06/04 00:51:34;;;;;;;5.60;3.23;;;8.60;99.90;;;;;;5118853;28;20296;-80
2023/06/04 00:54:08;;;;;;;5.33;2.90;;;8.50;99.90;;;;;;5117262;28;20225;-80
2023/06/04 00:56:36;;;;;;;4.10;2.80;;;8.60;99.90;;;;;;5118167;28;20254;-80
2023/06/04 00:59:04;;;;;;;4.33;2.77;;;8.80;99.90;;;;;;5117420;28;20201;-78
2023/06/04 01:01:40;;;;;;;3.87;2.40;;;8.90;99.90;;;;;;5117592;28;20205;-79
2023/06/04 01:04:15;;;;;;;4.23;2.50;;;8.90;99.90;;;;;;5116590;28;20232;-78
2023/06/04 01:06:46;;;;;;;3.67;2.70;;;8.90;99.90;;;;;;5117975;28;20220;-79
2023/06/04 01:09:14;;;;;;;4.00;3.00;;;9.00;99.90;;;;;;5117506;28;20209;-80
2023/06/04 01:11:41;;;;;;;3.90;2.60;;;8.90;99.90;;;;;;5117430;28;20737;-78
2023/06/04 01:14:10;;;;;;;2.83;2.30;;;8.80;99.90;;;;;;5117448;28;20252;-79
2023/06/04 01:16:41;;;;;;;4.00;2.63;;;8.70;99.90;;;;;;5118008;28;20197;-79
2023/06/04 01:19:24;;;;;;;5.43;3.33;;;9.00;99.90;;;;;;5117613;28;20214;-79
2023/06/04 01:21:54;;;;;;;3.80;2.90;;;9.00;99.90;;;;;;5118623;28;20276;-79
2023/06/04 01:24:26;;;;;;;5.53;3.03;;;8.80;99.90;;;;;;5118212;28;20355;-78
2023/06/04 01:26:55;;;;;;;5.03;3.23;;;8.70;99.90;;;;;;5117918;28;20193;-78
2023/06/04 01:29:22;;;;;;;7.50;3.37;;;8.70;99.90;;;;;;5118718;28;20600;-80
2023/06/04 01:31:53;;;;;;;4.57;3.13;;;8.70;99.90;;;;;;5117965;28;20201;-78
2023/06/04 01:34:21;;;;;;;5.13;3.17;;;8.60;99.90;;;;;;5117771;28;20576;-79
2023/06/04 01:36:48;;;;;;;5.67;3.07;;;8.50;99.90;;;;;;5117976;28;20197;-78
2023/06/04 01:39:14;;;;;;;5.23;3.00;;;8.40;99.90;;;;;;5117978;28;20199;-78
2023/06/04 01:41:41;;;;;;;7.30;2.83;;;8.50;99.90;;;;;;5117815;28;20194;-77
2023/06/04 01:44:08;;;;;;;4.90;3.03;;;8.40;99.90;;;;;;5117209;28;20694;-77
2023/06/04 01:46:35;;;;;;;4.63;3.07;;;8.30;99.90;;;;;;5117516;28;20249;-75
2023/06/04 01:49:01;;;;;;;5.90;3.67;;;8.30;99.90;;;;;;5117159;28;20197;-76
2023/06/04 01:51:30;;;;;;;4.80;3.30;;;8.20;99.90;;;;;;5117395;28;20205;-80
2023/06/04 01:53:56;;;;;;;5.90;3.00;;;8.10;99.90;;;;;;5117264;28;20244;-79
2023/06/04 01:56:23;;;;;;;4.60;3.17;;;8.20;99.90;;;;;;5117294;28;20215;-79
2023/06/04 01:58:50;;;;;;;6.17;2.80;;;8.30;99.90;;;;;;5117400;28;20196;-79
2023/06/04 02:01:17;;;;;;;6.50;3.00;;;8.20;99.90;;;;;;5117079;28;20626;-77
2023/06/04 02:03:44;;;;;;;4.93;3.17;;;8.40;99.90;;;;;;5116149;28;20221;-78
2023/06/04 02:06:12;;;;;;;5.03;2.67;;;8.40;99.90;;;;;;5116356;28;20232;-78
2023/06/04 02:08:41;;;;;;;4.17;3.00;;;8.30;99.90;;;;;;5116860;28;20211;-79
2023/06/04 02:11:07;;;;;;;4.90;2.70;;;8.20;99.90;;;;;;5117866;28;20212;-77
2023/06/04 02:13:34;;;;;;;6.00;2.90;;;8.20;99.90;;;;;;5117652;28;20586;-78
2023/06/04 02:16:01;;;;;;;3.97;2.37;;;8.00;99.90;;;;;;5117272;28;20204;-78
2023/06/04 02:18:28;;;;;;;3.57;2.40;;;8.10;99.90;;;;;;5117230;28;20287;-77
2023/06/04 02:20:57;;;;;;;4.97;2.67;;;8.00;99.90;;;;;;5115901;28;20211;-78
2023/06/04 02:23:24;;;;;;;4.73;2.67;;;7.80;99.90;;;;;;5116365;28;20219;-78
2023/06/04 02:25:52;;;;;;;3.73;2.63;;;7.90;99.90;;;;;;5116713;28;20215;-77
2023/06/04 02:28:19;;;;;;;5.37;2.93;;;7.90;99.90;;;;;;5116458;28;20209;-77
2023/06/04 02:30:46;;;;;;;2.57;2.37;;;7.80;99.90;;;;;;5117580;28;20246;-76
2023/06/04 02:33:13;;;;;;;3.70;2.50;;;7.70;99.90;;;;;;5115950;28;20225;-77
2023/06/04 02:35:40;;;;;;;4.20;2.60;;;7.90;99.90;;;;;;5115860;28;20208;-78
2023/06/04 02:38:07;;;;;;;3.80;2.80;;;7.80;99.90;;;;;;5116578;28;20216;-79
2023/06/04 02:40:34;;;;;;;3.93;2.50;;;7.80;99.90;;;;;;5116481;28;20265;-79
2023/06/04 02:43:03;;;;;;;3.53;2.60;;;7.70;99.90;;;;;;5116880;28;20266;-77
2023/06/04 02:45:29;;;;;;;2.90;2.57;;;7.80;99.90;;;;;;5116378;28;20568;-78
2023/06/04 02:47:58;;;;;;;3.47;2.57;;;7.70;99.90;;;;;;5116095;28;20249;-79
2023/06/04 02:50:24;;;;;;;2.77;2.13;;;8.00;99.90;;;;;;5115791;28;20209;-79
2023/06/04 02:52:51;;;;;;;3.10;2.40;;;7.80;99.90;;;;;;5114847;28;20221;-76
2023/06/04 02:55:18;;;;;;;4.10;2.30;;;7.70;99.90;;;;;;5115192;28;20209;-78
2023/06/04 02:57:45;;;;;;;2.67;2.33;;;7.80;99.90;;;;;;5115742;28;20570;-79
2023/06/04 03:00:15;;;;;;;2.80;2.10;;;7.60;99.90;;;;;;5115922;28;20234;-77
2023/06/04 03:02:43;;;;;;;4.47;2.97;;;7.50;99.90;;;;;;5115826;28;20228;-77
2023/06/04 03:05:12;;;;;;;5.43;2.67;;;7.60;99.90;;;;;;5116057;28;20205;-76
2023/06/04 03:07:40;;;;;;;3.20;2.20;;;7.70;99.90;;;;;;5115451;28;20565;-78
2023/06/04 03:10:08;;;;;;;2.80;2.33;;;7.60;99.90;;;;;;5114229;28;20215;-78
2023/06/04 03:12:35;;;;;;;2.57;2.33;;;7.50;99.90;;;;;;5113874;28;20216;-75
2023/06/04 03:15:02;;;;;;;3.63;2.40;;;7.60;99.90;;;;;;5114735;28;20211;-76
2023/06/04 03:17:31;;;;;;;3.17;2.73;;;7.80;99.90;;;;;;5116099;28;20288;-76
2023/06/04 03:19:58;;;;;;;3.20;2.03;;;8.00;99.90;;;;;;5114888;28;20228;-78
2023/06/04 03:22:25;;;;;;;5.03;2.33;;;8.00;99.90;;;;;;5114400;28;20217;-78
2023/06/04 03:24:52;;;;;;;4.57;2.47;;;8.00;99.90;;;;;;5115152;28;20197;-78
2023/06/04 03:27:19;;;;;;;4.03;2.60;;;8.20;99.90;;;;;;5114186;28;20246;-77
2023/06/04 03:29:46;;;;;;;3.53;2.10;;;8.20;99.90;;;;;;5114767;28;20850;-78
2023/06/04 03:32:13;;;;;;;2.77;2.23;;;8.00;99.90;;;;;;5116488;28;20530;-78
2023/06/04 03:34:41;;;;;;;3.50;2.20;;;8.10;99.90;;;;;;5112940;28;20555;-79
2023/06/04 03:37:08;;;;;;;3.40;2.50;;;8.00;99.90;;;;;;5118162;28;20203;-79
2023/06/04 03:39:35;;;;;;;3.77;2.30;;;8.10;99.90;;;;;;5118349;28;20311;-76
2023/06/04 03:42:02;;;;;;;4.33;2.70;;;8.20;99.90;;;;;;5118590;28;20205;-76
2023/06/04 03:44:29;;;;;;;3.63;2.13;;;8.20;99.90;;;;;;5117918;28;20221;-78
2023/06/04 03:46:56;;;;;;;3.67;2.50;;;8.20;99.90;;;;;;5119382;28;20203;-77
2023/06/04 03:49:23;;;;;;;3.53;2.40;;;8.20;99.90;;;;;;5118888;28;20571;-77
2023/06/04 03:51:51;;;;;;;2.97;2.40;;;8.20;99.90;;;;;;5118924;28;20232;-76
2023/06/04 03:54:17;;;;;;;2.83;2.13;;;8.20;99.90;;;;;;5119164;28;20232;-76
2023/06/04 03:56:45;;;;;;;2.47;2.03;;;8.30;99.90;;;;;;5119082;28;20197;-79
2023/06/04 03:59:12;;;;;;;5.60;2.30;;;8.50;99.90;;;;;;5119346;28;20219;-76
2023/06/04 04:01:39;;;;;;;3.27;2.03;;;8.50;99.90;;;;;;5119105;28;20554;-75
2023/06/04 04:04:06;;;;;;;4.57;2.60;;;8.50;99.90;;;;;;5118773;28;20221;-76
2023/06/04 04:06:33;;;;;;;3.43;2.50;;;8.50;99.90;;;;;;5118397;28;20211;-78
2023/06/04 04:09:01;;;;;;;2.90;2.40;;;8.80;99.90;;;;;;5118333;28;20201;-77
2023/06/04 04:11:28;;;;;;;3.00;2.30;;;9.60;99.90;;;;;;5118723;28;20190;-78
2023/06/04 04:13:54;;;;;;;4.40;2.07;;;9.60;99.90;;;;;;5117984;28;20244;-77
2023/06/04 04:16:21;;;;;;;4.00;2.23;;;9.70;99.90;;;;;;5119138;28;20201;-78
2023/06/04 04:18:48;;;;;;;4.10;2.30;;;10.90;99.90;;;;;;5119082;28;20197;-78
2023/06/04 04:21:15;;;;;;;4.47;2.57;;;11.90;1.00;;;;;;5118507;28;20204;-78
2023/06/04 04:23:41;;;;;;;3.67;2.40;;;12.40;1.00;;;;;;5118509;28;20220;-79
2023/06/04 04:26:11;;;;;;;3.10;2.50;;;11.80;1.00;;;;;;5118807;28;20197;-79
2023/06/04 04:28:38;;;;;;;5.07;2.60;;;11.50;1.00;;;;;;5118545;28;20577;-79
2023/06/04 04:31:06;;;;;;;3.57;2.63;;;11.00;1.00;;;;;;5118441;28;20648;-78
2023/06/04 04:33:36;;;;;;;4.80;2.80;;;10.50;99.90;;;;;;5117583;28;20635;-78
2023/06/04 04:36:03;;;;;;;3.63;2.67;;;10.00;1.00;;;;;;5118935;28;20668;-79
2023/06/04 04:38:33;;;;;;;5.40;3.00;;;9.70;1.00;;;;;;5118479;28;20200;-78
2023/06/04 04:41:00;;;;;;;4.83;2.80;;;9.60;99.90;;;;;;5118934;28;20232;-77
2023/06/04 04:43:32;;;;;;;3.57;2.60;;;10.10;99.90;;;;;;5117328;28;20227;-76
2023/06/04 04:45:59;;;;;;;5.57;2.63;;;10.00;99.90;;;;;;5117364;28;20201;-77
2023/06/04 04:48:26;;;;;;;4.73;2.90;;;9.50;99.90;;;;;;5117963;28;20215;-76
2023/06/04 04:50:53;;;;;;;5.07;2.90;;;9.80;99.90;;;;;;5117536;28;20205;-77
2023/06/04 04:53:20;;;;;;;4.97;3.00;;;10.00;99.90;;;;;;5117022;28;20232;-79
2023/06/04 04:55:47;;;;;;;3.50;2.70;;;10.10;99.90;;;;;;5117334;28;20231;-79
2023/06/04 04:58:14;;;;;;;3.10;2.50;;;10.10;99.90;;;;;;5116901;28;20200;-80
2023/06/04 05:00:43;;;;;;;3.07;2.50;;;10.10;99.90;;;;;;5117090;28;20211;-78
2023/06/04 05:03:12;;;;;;;3.40;2.83;;;10.20;99.90;;;;;;5117773;28;20221;-79
2023/06/04 05:05:38;;;;;;;4.07;2.60;;;10.30;99.90;;;;;;5117144;28;20197;-76
2023/06/04 05:08:05;;;;;;;4.43;2.63;;;10.50;99.90;;;;;;5117326;28;20201;-77
2023/06/04 05:10:32;;;;;;;6.67;3.10;;;10.60;99.90;;;;;;5118766;28;20649;-79
2023/06/04 05:13:00;;;;;;;3.77;2.70;;;10.80;96.90;;;;;;5117670;28;20727;-78
2023/06/04 05:15:27;;;;;;;4.67;2.87;;;10.60;99.90;;;;;;5117418;28;20220;-77
2023/06/04 05:17:56;;;;;;;3.90;2.90;;;10.90;57.30;;;;;;5118242;28;20223;-78
2023/06/04 05:20:23;;;;;;;4.00;2.60;;;11.20;1.00;;;;;;5113310;28;20608;-80
2023/06/04 05:22:51;;;;;;;4.33;2.77;;;11.30;1.00;;;;;;5116413;28;20240;-78
2023/06/04 05:25:19;;;;;;;3.17;2.47;;;11.10;1.00;;;;;;5115475;28;20238;-79
2023/06/04 05:27:48;;;;;;;4.60;2.87;;;11.20;1.00;;;;;;5110686;28;20189;-77
2023/06/04 05:30:16;;;;;;;4.87;2.57;;;11.50;1.00;;;;;;5117977;28;20212;-77
2023/06/04 05:32:42;;;;;;;5.40;2.87;;;11.90;1.00;;;;;;5116726;28;20248;-79
2023/06/04 05:35:11;;;;;;;3.40;2.40;;;12.10;1.00;;;;;;5117271;28;20213;-77
2023/06/04 05:37:40;;;;;;;3.23;2.70;;;12.80;99.90;;;;;;5116847;28;20209;-76
2023/06/04 05:40:08;;;;;;;3.90;2.37;;;12.50;1.00;;;;;;5116839;28;20197;-78
2023/06/04 05:42:35;;;;;;;4.73;2.80;;;13.90;1.00;;;;;;5116584;28;20221;-77
2023/06/04 05:45:02;;;;;;;4.47;2.60;;;13.60;99.90;;;;;;5116819;28;20224;-77
2023/06/04 05:47:29;;;;;;;3.80;2.60;;;13.90;1.00;;;;;;5117325;28;20197;-79
2023/06/04 05:49:57;;;;;;;3.17;2.30;;;13.90;1.00;;;;;;5117345;28;20246;-77
2023/06/04 05:52:25;;;;;;;4.80;2.67;;;14.70;1.00;;;;;;5116934;28;20204;-78
2023/06/04 05:54:52;;;;;;;2.77;2.43;;;13.90;99.90;;;;;;5115512;28;20309;-80
2023/06/04 05:57:19;;;;;;;3.67;2.50;;;13.30;1.00;;;;;;5116854;28;20699;-77
2023/06/04 05:59:46;;;;;;;4.03;2.40;;;12.80;1.00;;;;;;5117746;28;20280;-79
2023/06/04 06:02:13;;;;;;;4.37;2.57;;;12.60;99.90;;;;;;5116390;28;20197;-78
2023/06/04 06:04:40;;;;;;;3.73;2.67;;;12.50;1.00;;;;;;5117724;28;20632;-80
2023/06/04 06:07:07;;;;;;;4.47;2.97;;;12.50;99.90;;;;;;5117577;28;20276;-79
2023/06/04 06:09:36;;;;;;;5.00;2.30;;;12.30;13.30;;;;;;5117313;28;20660;-80
2023/06/04 06:12:03;;;;;;;3.37;2.40;;;12.30;99.90;;;;;;5117739;28;20257;-78
2023/06/04 06:14:30;;;;;;;6.73;2.90;;;12.60;1.00;;;;;;5117607;28;20221;-78
2023/06/04 06:16:56;;;;;;;3.80;2.50;;;12.50;1.00;;;;;;5117991;28;20201;-78
2023/06/04 06:19:23;;;;;;;3.97;2.47;;;12.80;1.00;;;;;;5117523;28;20205;-80
2023/06/04 06:21:50;;;;;;;3.27;2.50;;;12.80;1.00;;;;;;5117117;28;20291;-78
2023/06/04 06:24:17;;;;;;;4.13;2.37;;;13.00;1.00;;;;;;5116152;28;20714;-79
2023/06/04 06:26:45;;;;;;;6.83;2.63;;;13.30;1.00;;;;;;5115651;28;20201;-79
2023/06/04 06:29:12;;;;;;;3.30;2.20;;;13.40;1.00;;;;;;5116073;28;20205;-79
2023/06/04 06:31:38;;;;;;;3.03;2.57;;;13.50;99.90;;;;;;5116398;28;20209;-79
2023/06/04 06:34:05;;;;;;;3.00;2.10;;;13.30;99.90;;;;;;5115603;28;20592;-79
2023/06/04 06:36:32;;;;;;;2.53;2.30;;;13.60;1.00;;;;;;5115418;28;20254;-79
2023/06/04 06:38:59;;;;;;;2.73;2.33;;;13.80;83.40;;;;;;5116280;28;20221;-79
2023/06/04 06:41:27;;;;;;;3.90;2.33;;;13.80;1.00;;;;;;5116206;28;20846;-79
2023/06/04 06:43:55;;;;;;;3.40;2.20;;;13.90;1.00;;;;;;5115976;28;20697;-79
2023/06/04 06:46:21;;;;;;;3.30;2.30;;;14.10;1.00;;;;;;5115602;28;20679;-79
2023/06/04 06:48:49;;;;;;;4.93;2.40;;;14.30;99.90;;;;;;5115271;28;20213;-79
2023/06/04 06:51:16;;;;;;;2.73;2.20;;;14.20;1.00;;;;;;5115360;28;20204;-79
2023/06/04 06:53:44;;;;;;;5.53;2.10;;;14.40;1.00;;;;;;5115245;28;20228;-79
2023/06/04 06:56:11;;;;;;;4.37;2.40;;;14.40;1.00;;;;;;5115565;28;20205;-79
2023/06/04 06:58:38;;;;;;;3.90;2.50;;;14.10;99.90;;;;;;5115653;28;20211;-79
2023/06/04 07:01:06;;;;;;;3.20;2.30;;;14.00;1.00;;;;;;5115416;28;20210;-79
2023/06/04 07:03:33;;;;;;;3.80;2.20;;;14.10;1.00;;;;;;5115200;28;20239;-79
2023/06/04 07:06:00;;;;;;;3.20;2.00;;;14.10;71.20;;;;;;5115528;27;20229;-79
2023/06/04 07:08:26;;;;;;;3.00;2.23;;;14.10;1.00;;;;;;5115924;28;20207;-79
2023/06/04 07:10:53;;;;;;;5.07;1.87;;;14.40;1.00;;;;;;5116176;28;20201;-79
2023/06/04 07:13:20;;;;;;;2.30;2.00;;;14.60;54.40;;;;;;5115302;28;20300;-79
2023/06/04 07:15:47;;;;;;;3.43;2.33;;;14.80;8.00;;;;;;5115523;28;20581;-79
2023/06/04 07:18:15;;;;;;;3.10;2.15;;;14.90;1.00;;;;;;5115007;28;20201;-79
2023/06/04 07:20:42;;;;;;;5.22;1.92;;;14.70;1.00;;;;;;5115495;28;20205;-79
2023/06/04 07:23:09;;;;;;;3.00;2.07;;;14.60;1.00;;;;;;5115489;28;20228;-79
2023/06/04 07:25:36;;;;;;;2.67;2.10;;;14.70;1.00;;;;;;5115170;28;20205;-79
2023/06/04 07:28:03;;;;;;;3.83;2.65;;;14.70;1.00;;;;;;5115709;28;20207;-78
2023/06/04 07:30:31;;;;;;;2.22;1.95;;;15.00;1.00;;;;;;5115352;28;20684;-79
2023/06/04 07:32:58;;;;;;;2.22;2.03;;;15.10;1.00;;;;;;5115029;28;20697;-79
2023/06/04 07:35:26;;;;;;;2.78;1.80;;;15.20;1.00;;;;;;5114858;28;20228;-80
2023/06/04 07:37:53;;;;;;;2.95;2.40;;;15.30;38.50;;;;;;5115232;28;20661;-79
2023/06/04 07:40:20;;;;;;;4.78;2.00;;;15.30;99.90;;;;;;5115011;28;20209;-79
2023/06/04 07:42:47;;;;;;;6.00;2.15;;;15.40;1.00;;;;;;5114739;28;20313;-78
2023/06/04 07:45:15;;;;;;;3.05;2.08;;;15.50;1.00;;;;;;5114554;28;20193;-79
2023/06/04 07:47:41;;;;;;;2.30;2.10;;;15.40;1.00;;;;;;5115515;28;20201;-79
2023/06/04 07:50:09;;;;;;;3.72;2.70;;;15.50;1.00;;;;;;5113962;28;20193;-78
2023/06/04 07:52:37;;;;;;;2.65;2.08;;;15.60;1.00;;;;;;5119407;28;20232;-79
2023/06/04 07:55:05;;;;;;;3.22;2.47;;;15.70;1.00;;;;;;5123947;28;20221;-79
2023/06/04 07:57:32;;;;;;;5.70;2.42;;;15.90;1.00;;;;;;5123005;28;20212;-77
2023/06/04 07:59:59;;;;;;;4.13;2.17;;;15.80;1.00;;;;;;5122686;28;20213;-78
2023/06/04 08:02:26;;;;;;;2.78;2.38;;;15.90;1.00;;;;;;5122971;28;20560;-77
2023/06/04 08:04:53;;;;;;;3.20;2.17;;;16.00;1.00;;;;;;5122793;28;20201;-79
2023/06/04 08:07:20;;;;;;;3.70;2.13;;;16.20;1.00;;;;;;5122067;28;20696;-76
2023/06/04 08:09:49;;;;;;;2.40;2.20;;;16.20;1.00;;;;;;5123356;28;20304;-76
2023/06/04 08:12:17;;;;;;;3.20;2.10;;;16.30;1.00;;;;;;5122868;28;20299;-77
2023/06/04 08:14:44;;;;;;;4.88;2.40;;;16.30;1.00;;;;;;5121257;28;20553;-78
2023/06/04 08:17:10;;;;;;;4.28;2.22;;;16.50;1.00;;;;;;5121122;28;20201;-77
2023/06/04 08:19:37;;;;;;;2.45;2.20;;;16.70;99.90;;;;;;5123991;28;20574;-77
2023/06/04 08:22:05;;;;;;;2.45;2.08;;;16.60;1.00;;;;;;5125541;28;20205;-78
2023/06/04 08:24:32;;;;;;;3.53;2.20;;;16.80;99.90;;;;;;5126008;28;20207;-78
2023/06/04 08:27:00;;;;;;;3.47;2.00;;;16.90;1.00;;;;;;5125130;28;20201;-77
2023/06/04 08:29:27;;;;;;;4.10;2.75;;;16.90;1.00;;;;;;5125407;28;20212;-77
2023/06/04 08:31:54;;;;;;;2.50;2.03;;;17.10;1.00;;;;;;5126261;28;20284;-78
2023/06/04 08:34:21;;;;;;;3.30;2.28;;;17.30;1.00;;;;;;5124733;28;20225;-77
2023/06/04 08:36:48;;;;;;;2.33;1.92;;;17.30;1.00;;;;;;5124620;28;20197;-77
2023/06/04 08:39:15;;;;;;;2.47;1.90;;;17.30;99.90;;;;;;5124595;28;20740;-78
2023/06/04 08:41:45;;;;;;;2.10;1.80;;;17.20;59.80;;;;;;5124777;28;20196;-77
2023/06/04 08:44:13;;;;;;;4.10;1.85;;;17.40;99.90;;;;;;5123310;28;20227;-77
2023/06/04 08:46:41;;;;;;;4.00;1.73;;;17.70;99.90;;;;;;5104459;28;20274;-76
2023/06/04 08:49:08;;;;;;;2.45;1.70;;;17.90;99.90;;;;;;5103985;28;20579;-77
2023/06/04 08:51:38;;;;;;;2.67;1.80;;;18.30;29.20;;;;;;5122313;28;20213;-77
2023/06/04 08:54:05;;;;;;;2.13;1.63;;;18.80;1.00;;;;;;5123668;28;20217;-78
2023/06/04 08:56:33;;;;;;;3.80;2.20;;;18.70;1.00;;;;;;5126547;28;20220;-76
2023/06/04 08:59:03;;;;;;;2.53;1.98;;;19.20;1.00;;;;;;5126589;28;20197;-78
2023/06/04 09:01:32;;;;;;;4.40;2.20;;;19.20;1.00;;;;;;5125689;28;20213;-77
2023/06/04 09:04:00;;;;;;;3.00;1.77;;;19.10;1.00;;;;;;5125050;28;20278;-76
2023/06/04 09:06:27;;;;;;;4.53;1.52;;;19.60;1.00;;;;;;5125227;28;20223;-76
2023/06/04 09:08:58;;;;;;;2.20;1.70;;;20.00;1.00;;;;;;5124913;28;20287;-78
2023/06/04 09:11:27;;;;;;;3.28;1.90;;;20.40;1.00;;;;;;5124862;28;20262;-79
2023/06/04 09:13:54;;;;;;;2.30;1.52;;;20.20;99.90;;;;;;5123900;28;20227;-78
2023/06/04 09:16:21;;;;;;;1.90;1.45;;;21.20;99.90;;;;;;5123271;28;20217;-77
2023/06/04 09:18:49;;;;;;;2.75;1.98;;;21.10;99.90;;;;;;5125084;28;20252;-78
2023/06/04 09:21:16;;;;;;;2.17;1.77;;;20.40;99.90;;;;;;5124187;28;20196;-77
2023/06/04 09:23:47;;;;;;;3.55;2.35;;;20.50;99.90;;;;;;5124990;28;20327;-77
2023/06/04 09:26:14;;;;;;;2.88;1.50;;;20.60;97.50;;;;;;5124216;28;20233;-77
2023/06/04 09:28:42;;;;;;;3.00;1.52;;;20.80;13.10;;;;;;5123559;28;20201;-76
2023/06/04 09:31:10;;;;;;;3.22;1.58;;;20.50;1.00;;;;;;5124003;28;20235;-77
2023/06/04 09:33:44;;;;;;;1.92;1.55;;;20.70;1.00;;;;;;5122841;28;20228;-77
2023/06/04 09:36:13;;;;;;;3.80;1.45;;;20.90;1.00;;;;;;5120446;28;20250;-78
2023/06/04 09:38:40;;;;;;;2.83;1.70;;;21.60;1.00;;;;;;5107424;28;20580;-78
2023/06/04 09:41:12;;;;;;;5.10;1.50;;;21.60;1.00;;;;;;5122418;28;20197;-78
2023/06/04 09:43:39;;;;;;;1.85;1.73;;;21.50;1.00;;;;;;5122364;28;20704;-78
2023/06/04 09:46:13;;;;;;;1.67;1.50;;;21.20;1.00;;;;;;5121547;28;20257;-78
2023/06/04 09:48:41;;;;;;;2.85;1.60;;;21.30;1.00;;;;;;5102430;28;20239;-76
2023/06/04 09:51:09;;;;;;;2.20;1.50;;;21.30;1.00;;;;;;5120602;28;20203;-78
2023/06/04 09:53:37;;;;;;;2.00;1.60;;;21.40;1.00;;;;;;5122091;28;20217;-78
2023/06/04 09:56:06;;;;;;;2.78;1.25;;;21.20;99.90;;;;;;5122489;28;20232;-75
2023/06/04 09:58:33;;;;;;;190.57;13.40;;;21.80;99.90;;;;;;5122615;28;20201;-78
2023/06/04 10:01:01;;;;;;;2.83;1.55;;;22.20;99.90;;;;;;5123557;28;20648;-77
2023/06/04 10:03:32;;;;;;;1.60;1.45;;;22.00;99.90;;;;;;5122788;28;20780;-78
2023/06/04 10:06:01;;;;;;;2.65;1.40;;;21.70;99.90;;;;;;5121372;28;20258;-76
2023/06/04 10:08:29;;;;;;;1.88;1.55;;;21.80;99.90;;;;;;5122268;28;20201;-78
2023/06/04 10:11:01;;;;;;;3.25;1.58;;;21.70;1.00;;;;;;5121346;28;20204;-78
2023/06/04 10:13:30;;;;;;;2.97;1.70;;;21.90;1.00;;;;;;5120874;28;20858;-78
2023/06/04 10:15:59;;;;;;;4.45;1.90;;;22.50;1.00;;;;;;5120543;28;20220;-77
2023/06/04 10:18:28;;;;;;;3.80;1.70;;;22.90;1.00;;;;;;5121401;28;20200;-78
2023/06/04 10:20:56;;;;;;;1.95;1.73;;;22.80;1.00;;;;;;5122601;28;20205;-78
2023/06/04 10:23:24;;;;;;;1.83;1.50;;;22.60;1.00;;;;;;5121165;28;20221;-77
2023/06/04 10:25:53;;;;;;;4.13;1.55;;;23.40;1.00;;;;;;5121144;28;20197;-78
2023/06/04 10:28:23;;;;;;;2.08;1.50;;;23.30;1.00;;;;;;5121231;28;20212;-77
2023/06/04 10:30:50;;;;;;;3.13;1.50;;;22.40;1.00;;;;;;5120516;28;20235;-78
2023/06/04 10:33:23;;;;;;;2.03;1.58;;;22.80;1.00;;;;;;5120850;28;20762;-78
2023/06/04 10:35:50;;;;;;;24.17;2.70;;;22.30;1.00;;;;;;5120367;28;20225;-76
2023/06/04 10:38:18;;;;;;;2.22;1.50;;;21.90;1.00;;;;;;5120469;28;20200;-78
2023/06/04 10:40:45;;;;;;;2.40;1.65;;;22.10;1.00;;;;;;5120256;28;20645;-78
2023/06/04 10:43:15;;;;;;;2.85;1.45;;;22.40;1.00;;;;;;5119553;28;20221;-77
2023/06/04 10:45:44;;;;;;;4.40;2.03;;;21.60;99.90;;;;;;5120343;28;20212;-76
2023/06/04 10:48:13;;;;;;;2.42;1.42;;;22.10;99.90;;;;;;5120206;28;20200;-76
2023/06/04 10:50:50;;;;;;;2.25;1.63;;;22.40;99.90;;;;;;5121414;28;20209;-78
2023/06/04 10:53:18;;;;;;;1.90;1.80;;;23.50;99.90;;;;;;5120945;28;20230;-77
2023/06/04 10:55:45;;;;;;;3.67;1.70;;;23.00;99.90;;;;;;5121541;28;20235;-77
2023/06/04 10:58:12;;;;;;;2.05;1.58;;;22.20;99.90;;;;;;5120779;28;20205;-77
2023/06/04 11:00:40;;;;;;;2.03;1.63;;;22.10;99.90;;;;;;5121177;28;20207;-77
2023/06/04 11:03:10;;;;;;;2.45;1.90;;;22.20;99.90;;;;;;5120129;28;20263;-78
2023/06/04 11:05:38;;;;;;;2.15;1.50;;;22.30;99.90;;;;;;5119866;28;20204;-76
2023/06/04 11:08:05;;;;;;;2.10;1.90;;;21.70;99.90;;;;;;5119086;28;20268;-78
2023/06/04 11:10:34;;;;;;;3.90;1.58;;;22.00;99.90;;;;;;5119047;28;20201;-78
2023/06/04 11:13:01;;;;;;;3.25;1.45;;;22.30;99.90;;;;;;5119061;28;20231;-78
2023/06/04 11:15:37;;;;;;;2.42;1.50;;;22.40;99.20;;;;;;5119218;28;20217;-77
2023/06/04 11:18:05;;;;;;;2.53;1.67;;;22.50;96.50;;;;;;5119596;28;20224;-78
2023/06/04 11:20:33;;;;;;;2.47;1.25;;;22.90;21.90;;;;;;5119255;28;20204;-78
2023/06/04 11:23:02;;;;;;;2.20;1.75;;;23.00;23.10;;;;;;5120233;28;20225;-76
2023/06/04 11:25:30;;;;;;;4.30;1.67;;;22.60;1.00;;;;;;5120334;28;20201;-78
2023/06/04 11:27:57;;;;;;;1.23;1.10;;;22.70;1.00;;;;;;5120266;28;20201;-78
2023/06/04 11:30:25;;;;;;;2.20;1.42;;;22.50;1.00;;;;;;5121482;28;20649;-77
2023/06/04 11:33:01;;;;;;;4.28;1.40;;;22.40;1.00;;;;;;5119100;28;20228;-78
2023/06/04 11:35:27;;;;;;;1.70;1.40;;;22.20;1.00;;;;;;5117916;28;20224;-78
2023/06/04 11:37:56;;;;;;;2.15;1.63;;;22.10;1.00;;;;;;5119914;28;20228;-78
2023/06/04 11:40:24;;;;;;;3.08;1.60;;;21.70;1.00;;;;;;5118089;28;20207;-77
2023/06/04 11:42:51;;;;;;;1.50;1.40;;;22.10;1.00;;;;;;5120013;28;20231;-78
2023/06/04 11:45:20;;;;;;;3.80;1.73;;;22.20;1.00;;;;;;5119989;28;20208;-77
2023/06/04 11:47:48;;;;;;;1.70;1.60;;;22.30;1.00;;;;;;5120712;28;20205;-78
2023/06/04 11:50:15;;;;;;;3.10;2.15;;;22.20;1.00;;;;;;5120697;28;20657;-77
2023/06/04 11:52:42;;;;;;;2.05;1.45;;;22.10;1.00;;;;;;5121958;28;20233;-77
2023/06/04 11:55:11;;;;;;;3.10;1.35;;;22.30;1.00;;;;;;5124908;28;20200;-77
2023/06/04 11:57:39;;;;;;;2.30;1.40;;;22.80;1.00;;;;;;5123908;28;20204;-77
2023/06/04 12:00:10;;;;;;;3.33;1.55;;;23.80;1.00;;;;;;5125133;28;20264;-78
2023/06/04 12:02:37;;;;;;;2.40;1.60;;;24.50;1.00;;;;;;5124417;28;20722;-78
2023/06/04 12:05:14;;;;;;;2.03;1.75;;;23.50;1.00;;;;;;5125128;28;20214;-78
2023/06/04 12:07:42;;;;;;;2.95;1.70;;;23.10;1.00;;;;;;5124546;28;20239;-78
2023/06/04 12:10:11;;;;;;;2.33;1.40;;;23.10;1.00;;;;;;5123206;28;20201;-77
2023/06/04 12:12:39;;;;;;;4.43;1.80;;;22.90;1.00;;;;;;5123712;28;20251;-77
2023/06/04 12:15:09;;;;;;;2.58;1.50;;;22.90;1.00;;;;;;5123019;28;20197;-76
2023/06/04 12:17:36;;;;;;;2.53;1.80;;;23.10;1.00;;;;;;5123387;28;20692;-77
2023/06/04 12:20:03;;;;;;;1.80;1.40;;;23.00;1.00;;;;;;5121339;28;20649;-76
2023/06/04 12:22:31;;;;;;;1.75;1.40;;;23.60;1.00;;;;;;5122457;28;20228;-78
2023/06/04 12:25:02;;;;;;;3.63;1.88;;;23.50;1.00;;;;;;5122538;28;20201;-77
2023/06/04 12:27:31;;;;;;;3.47;1.80;;;23.30;1.00;;;;;;5123218;28;20197;-77
2023/06/04 12:29:59;;;;;;;2.10;1.52;;;23.20;1.00;;;;;;5122352;28;20197;-78
2023/06/04 12:32:27;;;;;;;1.92;1.80;;;23.00;1.00;;;;;;5122988;28;20228;-78
2023/06/04 12:34:54;;;;;;;3.72;2.10;;;23.00;1.00;;;;;;5122385;28;20287;-78
2023/06/04 12:37:21;;;;;;;1.63;1.40;;;23.20;1.00;;;;;;5123780;28;20230;-78
2023/06/04 12:39:48;;;;;;;1.83;1.52;;;23.30;1.00;;;;;;5122916;28;20292;-77
2023/06/04 12:42:15;;;;;;;1.58;1.48;;;23.10;1.00;;;;;;5122921;28;20481;-77
2023/06/04 12:44:43;;;;;;;2.15;1.10;;;22.80;1.00;;;;;;5121362;28;20250;-76
2023/06/04 12:47:10;;;;;;;2.30;1.20;;;22.70;1.00;;;;;;5124208;28;20205;-76
2023/06/04 12:49:37;;;;;;;2.55;1.70;;;22.90;1.00;;;;;;5122416;28;20201;-77
2023/06/04 12:52:05;;;;;;;2.53;1.50;;;23.10;1.00;;;;;;5123090;28;20211;-76
2023/06/04 12:54:32;;;;;;;1.70;1.55;;;23.40;1.00;;;;;;5122626;28;20204;-77
2023/06/04 12:57:00;;;;;;;2.28;1.60;;;23.40;1.00;;;;;;5122736;28;20596;-77
2023/06/04 12:59:28;;;;;;;2.90;1.38;;;23.20;1.00;;;;;;5122710;28;20291;-77